Time;durP1;ratioP1;P1;durP2;ratioP2;P2;SDS_P1;SDS_P2;PMS_P1;PMS_P2;Temp;Humidity;BMP_temperature;BMP_pressure;BME280_temperature;BME280_humidity;BME280_pressure;Samples;Min_cycle;Max_cycle;Signal;HPM_P1;HPM_P2
2022/04/10 00:01:13;;;;;;;17.83;7.22;;;2.50;99.90;;;;;;5093765;28;20020;-70
2022/04/10 00:03:39;;;;;;;24.50;8.20;;;2.40;99.90;;;;;;5093751;28;20020;-70
2022/04/10 00:06:04;;;;;;;17.77;8.88;;;2.40;99.90;;;;;;5075580;28;20386;-71
2022/04/10 00:08:30;;;;;;;17.60;8.48;;;2.30;99.90;;;;;;5092405;28;20114;-70
2022/04/10 00:10:55;;;;;;;21.65;8.63;;;2.20;99.90;;;;;;5092511;28;20528;-71
2022/04/10 00:13:21;;;;;;;18.27;8.90;;;2.20;99.90;;;;;;5093720;28;20386;-70
2022/04/10 00:15:46;;;;;;;19.15;8.73;;;2.10;99.90;;;;;;5093739;28;20028;-70
2022/04/10 00:18:12;;;;;;;22.15;9.07;;;2.10;99.90;;;;;;5092465;28;20031;-70
2022/04/10 00:20:37;;;;;;;16.95;9.50;;;2.00;99.90;;;;;;5092410;28;20028;-70
2022/04/10 00:23:04;;;;;;;137.20;68.07;;;2.00;99.90;;;;;;5093533;28;20027;-71
2022/04/10 00:25:29;;;;;;;49.13;22.45;;;2.10;99.90;;;;;;5092151;28;20112;-70
2022/04/10 00:27:55;;;;;;;25.80;12.38;;;2.10;99.90;;;;;;5075513;28;20111;-70
2022/04/10 00:30:20;;;;;;;22.15;11.35;;;2.00;99.90;;;;;;5093131;28;20047;-70
2022/04/10 00:32:46;;;;;;;19.60;10.30;;;1.90;99.90;;;;;;5093375;28;20074;-71
2022/04/10 00:35:12;;;;;;;19.95;11.27;;;1.80;99.90;;;;;;5092127;28;20020;-71
2022/04/10 00:37:38;;;;;;;26.02;11.35;;;1.80;99.90;;;;;;5093341;28;20531;-70
2022/04/10 00:40:06;;;;;;;24.00;11.43;;;1.80;99.90;;;;;;5093357;28;20039;-71
2022/04/10 00:42:33;;;;;;;20.40;10.95;;;1.70;99.90;;;;;;5093268;28;20479;-71
2022/04/10 00:44:59;;;;;;;22.98;10.80;;;1.70;99.90;;;;;;5093374;28;20382;-71
2022/04/10 00:47:24;;;;;;;19.95;11.15;;;1.70;99.90;;;;;;5092089;28;20028;-70
2022/04/10 00:49:50;;;;;;;21.45;10.90;;;1.70;99.90;;;;;;5075032;28;20031;-70
2022/04/10 00:52:17;;;;;;;23.45;11.73;;;1.60;99.90;;;;;;5075115;28;20039;-70
2022/04/10 00:54:43;;;;;;;25.98;11.98;;;1.60;99.90;;;;;;5075219;28;20063;-70
2022/04/10 00:57:11;;;;;;;20.02;11.90;;;1.70;99.90;;;;;;5074939;28;20028;-70
2022/04/10 00:59:37;;;;;;;26.05;11.57;;;1.60;99.90;;;;;;5091984;28;20021;-70
2022/04/10 01:02:03;;;;;;;24.10;11.20;;;1.60;99.90;;;;;;5092002;28;20031;-70
2022/04/10 01:04:28;;;;;;;30.98;11.68;;;1.60;99.90;;;;;;5091669;28;20390;-71
2022/04/10 01:06:56;;;;;;;29.23;11.25;;;1.60;99.90;;;;;;5091774;28;20020;-70
2022/04/10 01:09:23;;;;;;;27.05;11.80;;;1.60;99.90;;;;;;5093005;28;20432;-70
2022/04/10 01:11:51;;;;;;;19.17;11.88;;;1.50;99.90;;;;;;5092886;28;20027;-70
2022/04/10 01:14:17;;;;;;;25.80;12.20;;;1.60;99.90;;;;;;5092944;28;20489;-71
2022/04/10 01:16:43;;;;;;;20.83;11.93;;;1.60;99.90;;;;;;5091784;28;20027;-71
2022/04/10 01:19:09;;;;;;;26.75;11.77;;;1.60;99.90;;;;;;5074849;28;20482;-70
2022/04/10 01:21:39;;;;;;;27.33;10.75;;;1.60;99.90;;;;;;5091737;28;20032;-71
2022/04/10 01:24:06;;;;;;;23.75;11.98;;;1.50;99.90;;;;;;5091656;28;20118;-70
2022/04/10 01:26:31;;;;;;;24.63;11.85;;;1.50;99.90;;;;;;5074835;28;20390;-70
2022/04/10 01:29:04;;;;;;;26.67;11.70;;;1.50;99.90;;;;;;5092876;28;20035;-71
2022/04/10 01:31:31;;;;;;;25.52;11.38;;;1.50;99.90;;;;;;5092562;28;20105;-71
2022/04/10 01:33:59;;;;;;;22.05;11.40;;;1.50;99.90;;;;;;5092835;28;20031;-70
2022/04/10 01:36:26;;;;;;;33.00;11.63;;;1.50;99.90;;;;;;5091435;28;20056;-71
2022/04/10 01:38:54;;;;;;;29.08;11.75;;;1.50;99.90;;;;;;5095192;28;20024;-71
2022/04/10 01:41:20;;;;;;;26.00;12.00;;;1.40;99.90;;;;;;5096291;28;20020;-70
2022/04/10 01:43:47;;;;;;;29.42;12.73;;;1.40;99.90;;;;;;5095063;28;20093;-70
2022/04/10 01:46:14;;;;;;;27.25;12.23;;;1.40;99.90;;;;;;5096290;28;20027;-70
2022/04/10 01:48:40;;;;;;;21.40;11.35;;;1.40;99.90;;;;;;5095071;28;20047;-70
2022/04/10 01:51:06;;;;;;;22.88;12.18;;;1.40;99.90;;;;;;5094861;28;20027;-70
2022/04/10 01:53:32;;;;;;;26.27;11.50;;;1.50;99.90;;;;;;5094985;28;20028;-70
2022/04/10 01:55:58;;;;;;;24.25;13.43;;;1.50;99.90;;;;;;5094953;28;20082;-70
2022/04/10 01:58:23;;;;;;;25.10;12.13;;;1.50;99.90;;;;;;5094713;28;20142;-70
2022/04/10 02:00:49;;;;;;;26.55;12.23;;;1.60;99.90;;;;;;5095960;28;20032;-70
2022/04/10 02:03:14;;;;;;;22.05;11.85;;;1.60;99.90;;;;;;5094670;28;20032;-70
2022/04/10 02:05:40;;;;;;;28.88;11.90;;;1.50;99.90;;;;;;5095868;28;20429;-70
2022/04/10 02:08:06;;;;;;;28.33;12.95;;;1.50;99.90;;;;;;5094539;28;20119;-70
2022/04/10 02:10:32;;;;;;;27.50;11.95;;;1.60;99.90;;;;;;5077646;28;20495;-70
2022/04/10 02:12:57;;;;;;;24.20;12.45;;;1.60;99.90;;;;;;5094627;28;20020;-70
2022/04/10 02:15:22;;;;;;;27.50;12.05;;;1.60;99.90;;;;;;5095751;28;20025;-71
2022/04/10 02:17:48;;;;;;;33.55;12.38;;;1.60;99.90;;;;;;5095593;28;20021;-70
2022/04/10 02:20:13;;;;;;;24.73;11.38;;;1.60;99.90;;;;;;5095662;28;20024;-71
2022/04/10 02:22:39;;;;;;;31.00;12.13;;;1.60;99.90;;;;;;5095477;28;20115;-71
2022/04/10 02:25:05;;;;;;;25.92;12.23;;;1.60;99.90;;;;;;5094322;28;20028;-71
2022/04/10 02:27:30;;;;;;;24.40;12.00;;;1.60;99.90;;;;;;5094166;28;20367;-70
2022/04/10 02:29:56;;;;;;;30.95;13.25;;;1.50;99.90;;;;;;5095118;28;20060;-71
2022/04/10 02:32:23;;;;;;;28.65;12.45;;;1.60;99.90;;;;;;5095225;28;20032;-70
2022/04/10 02:34:55;;;;;;;32.67;13.13;;;1.50;99.90;;;;;;5095329;28;20020;-71
2022/04/10 02:37:20;;;;;;;30.75;13.43;;;1.50;99.90;;;;;;5095243;28;20421;-71
2022/04/10 02:39:46;;;;;;;28.13;13.88;;;1.50;99.90;;;;;;5077128;28;20057;-71
2022/04/10 02:42:11;;;;;;;24.98;11.18;;;1.50;99.90;;;;;;5093970;28;20028;-71
2022/04/10 02:44:37;;;;;;;24.05;11.93;;;1.50;99.90;;;;;;5093894;28;20031;-71
2022/04/10 02:47:02;;;;;;;31.75;13.30;;;1.40;99.90;;;;;;5076908;28;20066;-71
2022/04/10 02:49:28;;;;;;;27.45;12.93;;;1.40;99.90;;;;;;5095058;28;20062;-71
2022/04/10 02:51:53;;;;;;;31.58;13.98;;;1.40;99.90;;;;;;5095027;28;20035;-71
2022/04/10 02:54:19;;;;;;;31.92;13.55;;;1.40;99.90;;;;;;5094881;28;20024;-71
2022/04/10 02:56:44;;;;;;;30.10;13.82;;;1.40;99.90;;;;;;5093581;28;20066;-71
2022/04/10 02:59:10;;;;;;;35.33;13.40;;;1.50;99.90;;;;;;5094855;28;20024;-71
2022/04/10 03:01:35;;;;;;;23.15;13.88;;;1.40;99.90;;;;;;5094864;28;20024;-71
2022/04/10 03:04:01;;;;;;;25.45;12.80;;;1.40;99.90;;;;;;5093610;28;20050;-71
2022/04/10 03:06:26;;;;;;;32.10;14.52;;;1.40;99.90;;;;;;5093510;28;20366;-71
2022/04/10 03:08:53;;;;;;;31.80;13.88;;;1.30;99.90;;;;;;5093345;28;20047;-71
2022/04/10 03:11:19;;;;;;;28.02;14.10;;;1.40;99.90;;;;;;5076523;28;20031;-69
2022/04/10 03:13:45;;;;;;;27.80;13.85;;;1.30;99.90;;;;;;5094546;28;20020;-69
2022/04/10 03:16:10;;;;;;;30.40;14.93;;;1.30;99.90;;;;;;5093248;28;20077;-69
2022/04/10 03:18:36;;;;;;;29.33;13.88;;;1.40;99.90;;;;;;5094481;28;20111;-70
2022/04/10 03:21:02;;;;;;;28.15;13.75;;;1.30;99.90;;;;;;5094508;28;20031;-69
2022/04/10 03:23:27;;;;;;;29.85;14.93;;;1.30;99.90;;;;;;5076501;28;20032;-69
2022/04/10 03:25:53;;;;;;;28.73;14.75;;;1.30;99.90;;;;;;5094295;28;20478;-69
2022/04/10 03:28:18;;;;;;;31.23;14.77;;;1.20;99.90;;;;;;5076069;28;20034;-69
2022/04/10 03:30:44;;;;;;;34.17;14.95;;;1.20;99.90;;;;;;5075886;28;20090;-69
2022/04/10 03:33:10;;;;;;;34.85;15.13;;;1.20;99.90;;;;;;5094157;28;20533;-69
2022/04/10 03:35:36;;;;;;;33.35;15.18;;;1.10;99.90;;;;;;5094204;28;20056;-69
2022/04/10 03:38:02;;;;;;;28.30;15.25;;;1.20;99.90;;;;;;5094140;28;20028;-69
2022/04/10 03:40:27;;;;;;;38.13;16.98;;;1.20;99.90;;;;;;5094176;28;20020;-69
2022/04/10 03:42:53;;;;;;;29.88;16.02;;;1.20;99.90;;;;;;5075880;28;20024;-70
2022/04/10 03:45:18;;;;;;;31.90;16.42;;;1.20;99.90;;;;;;5092643;28;20085;-72
2022/04/10 03:47:46;;;;;;;29.75;16.00;;;1.20;99.90;;;;;;5092787;28;20028;-69
2022/04/10 03:50:11;;;;;;;34.22;16.67;;;1.20;99.90;;;;;;5093858;28;20028;-70
2022/04/10 03:52:37;;;;;;;41.97;16.92;;;1.20;99.90;;;;;;5092548;28;20103;-70
2022/04/10 03:55:03;;;;;;;33.60;17.25;;;1.10;99.90;;;;;;5093878;28;20031;-69
2022/04/10 03:57:28;;;;;;;37.83;16.88;;;1.20;99.90;;;;;;5093875;28;20012;-70
2022/04/10 03:59:54;;;;;;;34.88;17.77;;;1.10;99.90;;;;;;5092566;28;20486;-69
2022/04/10 04:02:22;;;;;;;39.40;18.48;;;1.20;99.90;;;;;;5092045;28;20016;-71
2022/04/10 04:04:50;;;;;;;36.47;17.02;;;1.20;99.90;;;;;;5092515;28;20024;-70
2022/04/10 04:07:24;;;;;;;36.50;17.27;;;1.20;99.90;;;;;;5092520;28;20020;-71
2022/04/10 04:09:49;;;;;;;39.33;16.70;;;1.30;99.90;;;;;;5075434;28;20382;-69
2022/04/10 04:12:15;;;;;;;48.00;18.02;;;1.30;99.90;;;;;;5092310;28;20024;-69
2022/04/10 04:14:41;;;;;;;38.08;17.00;;;1.30;99.90;;;;;;5093531;28;20099;-70
2022/04/10 04:17:07;;;;;;;38.40;17.63;;;1.20;99.90;;;;;;5092214;28;20031;-69
2022/04/10 04:19:32;;;;;;;32.20;17.23;;;1.10;99.90;;;;;;5093507;28;20028;-69
2022/04/10 04:21:58;;;;;;;35.38;17.05;;;1.20;99.90;;;;;;5092251;28;20538;-69
2022/04/10 04:24:23;;;;;;;30.70;17.27;;;1.20;99.90;;;;;;5093362;28;20044;-69
2022/04/10 04:26:49;;;;;;;39.38;16.90;;;1.20;99.90;;;;;;5093354;28;20103;-70
2022/04/10 04:29:14;;;;;;;29.33;17.90;;;1.30;99.90;;;;;;5093301;28;20028;-69
2022/04/10 04:31:40;;;;;;;34.83;16.73;;;1.30;99.90;;;;;;5093031;28;20074;-70
2022/04/10 04:34:07;;;;;;;38.00;17.77;;;1.20;99.90;;;;;;5093308;28;20024;-70
2022/04/10 04:36:32;;;;;;;37.33;17.55;;;1.30;99.90;;;;;;5092141;28;20016;-69
2022/04/10 04:38:58;;;;;;;39.78;18.60;;;1.30;99.90;;;;;;5091924;28;20489;-69
2022/04/10 04:41:23;;;;;;;38.63;17.33;;;1.20;99.90;;;;;;5092045;28;20035;-69
2022/04/10 04:43:49;;;;;;;32.80;16.38;;;1.20;99.90;;;;;;5092027;28;20023;-70
2022/04/10 04:46:15;;;;;;;34.15;17.20;;;1.20;99.90;;;;;;5093195;28;20368;-69
2022/04/10 04:48:40;;;;;;;30.23;16.95;;;1.20;99.90;;;;;;5091810;28;20056;-70
2022/04/10 04:51:06;;;;;;;31.02;16.00;;;1.20;99.90;;;;;;5093116;28;20067;-70
2022/04/10 04:53:31;;;;;;;33.22;16.02;;;1.10;99.90;;;;;;5092010;28;20022;-70
2022/04/10 04:55:57;;;;;;;31.15;15.35;;;1.00;99.90;;;;;;5093162;28;20028;-70
2022/04/10 04:58:22;;;;;;;27.08;15.02;;;1.00;99.90;;;;;;5091815;28;20072;-70
2022/04/10 05:00:48;;;;;;;30.83;16.42;;;1.00;99.90;;;;;;5091922;28;20038;-70
2022/04/10 05:03:15;;;;;;;30.33;15.95;;;1.00;99.90;;;;;;5074983;28;20477;-69
2022/04/10 05:05:41;;;;;;;27.20;15.75;;;0.90;99.90;;;;;;5093041;28;20024;-69
2022/04/10 05:08:06;;;;;;;32.78;16.17;;;1.00;99.90;;;;;;5092976;28;20507;-70
2022/04/10 05:10:32;;;;;;;29.55;16.10;;;1.00;99.90;;;;;;5074810;28;20122;-69
2022/04/10 05:12:58;;;;;;;36.20;16.50;;;1.10;99.90;;;;;;5076122;28;20024;-69
2022/04/10 05:15:23;;;;;;;28.63;16.10;;;1.20;99.90;;;;;;5095514;28;20366;-69
2022/04/10 05:17:49;;;;;;;26.33;14.52;;;1.30;99.90;;;;;;5096791;28;20035;-69
2022/04/10 05:20:14;;;;;;;34.85;15.48;;;1.60;99.90;;;;;;5078639;28;20073;-69
2022/04/10 05:22:40;;;;;;;30.73;14.57;;;1.70;99.90;;;;;;5096695;28;20031;-69
2022/04/10 05:25:08;;;;;;;35.30;13.60;;;1.90;99.90;;;;;;5095412;28;20024;-69
2022/04/10 05:27:33;;;;;;;21.60;12.65;;;2.10;99.90;;;;;;5078975;28;20024;-69
2022/04/10 05:29:59;;;;;;;27.90;12.57;;;2.40;99.90;;;;;;5078191;28;20550;-69
2022/04/10 05:32:24;;;;;;;26.23;12.98;;;2.50;99.90;;;;;;5096449;28;20024;-69
2022/04/10 05:34:50;;;;;;;20.98;11.32;;;2.80;99.90;;;;;;5096456;28;20081;-69
2022/04/10 05:37:15;;;;;;;26.85;12.00;;;3.00;99.90;;;;;;5095073;28;20500;-69
2022/04/10 05:39:42;;;;;;;23.77;11.48;;;3.10;99.90;;;;;;5095167;28;20031;-70
2022/04/10 05:42:08;;;;;;;21.30;11.70;;;3.30;99.90;;;;;;5095196;28;20031;-70
2022/04/10 05:44:34;;;;;;;19.75;9.85;;;3.60;99.90;;;;;;5096420;28;20398;-70
2022/04/10 05:47:00;;;;;;;27.98;10.93;;;4.10;99.90;;;;;;5096360;28;20069;-70
2022/04/10 05:49:26;;;;;;;23.63;10.15;;;4.50;99.90;;;;;;5096283;28;20020;-70
2022/04/10 05:51:52;;;;;;;16.98;9.27;;;5.10;99.90;;;;;;5094910;28;20024;-70
2022/04/10 05:54:18;;;;;;;19.15;8.75;;;6.00;99.90;;;;;;5078005;28;20107;-70
2022/04/10 05:56:43;;;;;;;21.08;8.45;;;6.70;99.90;;;;;;5094922;28;20022;-70
2022/04/10 05:59:09;;;;;;;19.30;8.85;;;6.50;99.90;;;;;;5096061;28;20103;-70
2022/04/10 06:01:34;;;;;;;20.35;9.25;;;6.30;99.90;;;;;;5094850;28;20063;-70
2022/04/10 06:04:00;;;;;;;18.65;7.78;;;6.60;99.90;;;;;;5094847;28;20024;-70
2022/04/10 06:06:25;;;;;;;21.90;8.27;;;7.40;99.90;;;;;;5094712;28;20149;-70
2022/04/10 06:08:51;;;;;;;15.65;8.43;;;7.50;99.90;;;;;;5095808;28;20036;-70
2022/04/10 06:11:17;;;;;;;19.30;7.90;;;7.70;99.90;;;;;;5094542;28;20035;-70
2022/04/10 06:13:42;;;;;;;18.55;7.97;;;8.20;99.90;;;;;;5094479;28;20031;-70
2022/04/10 06:16:08;;;;;;;16.30;7.63;;;8.30;99.90;;;;;;5095698;28;20020;-70
2022/04/10 06:18:33;;;;;;;14.30;7.75;;;8.80;99.90;;;;;;5094562;28;20021;-69
2022/04/10 06:20:59;;;;;;;13.43;6.97;;;8.70;99.90;;;;;;5095696;28;20032;-70
2022/04/10 06:23:24;;;;;;;19.17;7.10;;;9.00;99.90;;;;;;5094035;28;20390;-70
2022/04/10 06:25:50;;;;;;;20.35;8.48;;;9.10;99.90;;;;;;5095492;28;20077;-70
2022/04/10 06:28:16;;;;;;;16.58;7.22;;;9.10;99.90;;;;;;5095503;28;20039;-70
2022/04/10 06:30:43;;;;;;;19.95;6.93;;;9.00;99.90;;;;;;5093899;28;20409;-70
2022/04/10 06:33:09;;;;;;;19.60;7.63;;;8.90;99.90;;;;;;5094140;28;20020;-70
2022/04/10 06:35:34;;;;;;;15.70;7.60;;;8.90;99.90;;;;;;5094185;28;20028;-70
2022/04/10 06:38:00;;;;;;;18.20;7.57;;;9.50;99.90;;;;;;5094131;28;20051;-69
2022/04/10 06:40:25;;;;;;;16.58;7.35;;;10.00;99.90;;;;;;5095236;28;20367;-70
2022/04/10 06:42:51;;;;;;;17.35;6.68;;;9.50;99.90;;;;;;5095161;28;20031;-70
2022/04/10 06:45:17;;;;;;;13.25;6.45;;;9.50;99.90;;;;;;5076998;28;20103;-70
2022/04/10 06:47:42;;;;;;;15.23;6.63;;;10.50;99.90;;;;;;5093966;28;20020;-70
2022/04/10 06:50:08;;;;;;;12.30;6.47;;;10.60;99.90;;;;;;5093697;28;20031;-70
2022/04/10 06:52:35;;;;;;;13.52;5.63;;;11.20;99.90;;;;;;5095088;28;20016;-70
2022/04/10 06:55:01;;;;;;;11.13;6.53;;;11.00;99.90;;;;;;5095047;28;20020;-69
2022/04/10 06:57:27;;;;;;;14.20;6.35;;;10.80;99.90;;;;;;5076917;28;20500;-71
2022/04/10 06:59:52;;;;;;;15.85;7.07;;;10.80;99.90;;;;;;5093720;28;20089;-70
2022/04/10 07:02:18;;;;;;;15.38;6.35;;;10.90;99.90;;;;;;5094769;28;20072;-69
2022/04/10 07:04:45;;;;;;;20.33;6.93;;;10.90;99.90;;;;;;5094781;28;20032;-69
2022/04/10 07:07:10;;;;;;;12.57;6.38;;;10.80;99.90;;;;;;5094719;28;20081;-70
2022/04/10 07:09:36;;;;;;;12.45;6.15;;;11.50;99.90;;;;;;5094741;28;20036;-70
2022/04/10 07:12:02;;;;;;;15.50;5.93;;;11.10;99.90;;;;;;5076580;28;20034;-70
2022/04/10 07:14:27;;;;;;;13.35;5.50;;;11.70;99.90;;;;;;5093536;28;20453;-70
2022/04/10 07:16:53;;;;;;;12.48;5.47;;;11.20;99.90;;;;;;5093365;28;20017;-70
2022/04/10 07:19:18;;;;;;;13.60;5.82;;;10.80;99.90;;;;;;5094497;28;20367;-70
2022/04/10 07:24:29;;;;;;;16.77;5.07;;;10.40;99.90;;;;;;5094221;28;20024;-70
2022/04/10 07:26:55;;;;;;;14.88;5.60;;;11.20;99.90;;;;;;5093051;28;20026;-70
2022/04/10 07:29:21;;;;;;;13.38;5.90;;;10.60;99.90;;;;;;5094079;28;20102;-69
2022/04/10 07:31:46;;;;;;;11.68;4.90;;;10.40;99.90;;;;;;5093078;28;20561;-70
2022/04/10 07:34:12;;;;;;;12.77;5.43;;;10.90;99.90;;;;;;5093062;28;20050;-69
2022/04/10 07:36:37;;;;;;;11.98;4.90;;;11.10;99.90;;;;;;5092301;28;20516;-70
2022/04/10 07:39:03;;;;;;;12.38;5.43;;;11.30;99.90;;;;;;5092839;28;20020;-70
2022/04/10 07:41:28;;;;;;;17.42;5.80;;;10.90;99.90;;;;;;5094168;28;20024;-70
2022/04/10 07:43:54;;;;;;;13.20;5.72;;;11.10;99.90;;;;;;5075923;28;20542;-70
2022/04/10 07:49:05;;;;;;;20.88;5.13;;;12.30;99.90;;;;;;5093797;28;20481;-70
2022/04/10 07:51:32;;;;;;;11.55;5.00;;;12.70;99.90;;;;;;5092567;28;20109;-69
2022/04/10 07:53:57;;;;;;;12.48;4.40;;;12.00;99.90;;;;;;5092683;28;20395;-70
2022/04/10 07:56:23;;;;;;;15.95;5.18;;;12.30;99.90;;;;;;5092673;28;20027;-70
2022/04/10 07:58:49;;;;;;;11.40;4.55;;;11.90;99.90;;;;;;5093758;28;20023;-70
2022/04/10 08:01:15;;;;;;;14.32;4.65;;;12.00;99.90;;;;;;5075681;28;20112;-70
2022/04/10 08:03:40;;;;;;;13.57;4.78;;;12.70;99.90;;;;;;5093707;28;20081;-70
2022/04/10 08:06:05;;;;;;;12.90;4.32;;;12.50;99.90;;;;;;5092575;28;20024;-69
2022/04/10 08:08:31;;;;;;;13.77;4.45;;;11.70;99.90;;;;;;5092465;28;20106;-69
2022/04/10 08:10:57;;;;;;;12.48;4.53;;;11.50;99.90;;;;;;5092312;28;20448;-69
2022/04/10 08:13:22;;;;;;;11.63;4.93;;;11.90;99.90;;;;;;5093570;28;20082;-69
2022/04/10 08:15:48;;;;;;;14.32;4.53;;;11.50;99.90;;;;;;5092299;28;20069;-69
2022/04/10 08:18:14;;;;;;;18.38;4.75;;;11.90;99.90;;;;;;5093463;28;20023;-70
2022/04/10 08:20:39;;;;;;;13.85;5.00;;;12.40;99.90;;;;;;5093502;28;20028;-69
2022/04/10 08:23:05;;;;;;;13.93;5.20;;;12.30;99.90;;;;;;5092153;28;20032;-70
2022/04/10 08:25:31;;;;;;;12.68;4.78;;;12.70;99.90;;;;;;5093488;28;20534;-69
2022/04/10 08:27:56;;;;;;;13.43;4.40;;;11.50;99.90;;;;;;5092096;28;20383;-70
2022/04/10 08:30:22;;;;;;;10.88;5.13;;;11.10;99.90;;;;;;5093097;28;20102;-69
2022/04/10 08:32:48;;;;;;;15.43;4.93;;;11.50;99.90;;;;;;5093445;28;20501;-70
2022/04/10 08:35:14;;;;;;;12.68;4.60;;;10.60;99.90;;;;;;5092206;28;20106;-70
2022/04/10 08:37:41;;;;;;;11.00;4.15;;;10.10;99.90;;;;;;5091930;28;20020;-70
2022/04/10 08:40:08;;;;;;;11.60;3.65;;;9.70;99.90;;;;;;5092153;28;20012;-70
2022/04/10 08:42:33;;;;;;;8.23;3.42;;;9.10;99.90;;;;;;5075244;28;20551;-70
2022/04/10 08:44:59;;;;;;;13.65;4.00;;;8.80;99.90;;;;;;5091973;28;20024;-70
2022/04/10 08:47:25;;;;;;;11.65;3.97;;;8.80;99.90;;;;;;5095264;28;20025;-70
2022/04/10 08:49:53;;;;;;;11.40;4.13;;;8.30;99.90;;;;;;5097366;28;20362;-69
2022/04/10 08:52:20;;;;;;;13.35;4.82;;;8.20;99.90;;;;;;5096062;28;20028;-71
2022/04/10 08:54:48;;;;;;;7.78;3.40;;;8.20;99.90;;;;;;5097268;28;20016;-70
2022/04/10 08:57:14;;;;;;;8.95;3.95;;;8.20;99.90;;;;;;5096037;28;20020;-71
2022/04/10 08:59:40;;;;;;;12.25;4.25;;;8.40;99.90;;;;;;5096038;28;20420;-70
2022/04/10 09:02:06;;;;;;;15.88;4.43;;;8.80;99.90;;;;;;5078998;28;20020;-71
2022/04/10 09:04:32;;;;;;;13.93;4.32;;;9.30;99.90;;;;;;5097224;28;20024;-70
2022/04/10 09:07:03;;;;;;;15.02;4.45;;;10.00;99.90;;;;;;5078750;28;20470;-70
2022/04/10 09:09:31;;;;;;;11.70;3.92;;;9.90;99.90;;;;;;5097103;28;20150;-70
2022/04/10 09:11:57;;;;;;;10.02;4.07;;;9.30;99.90;;;;;;5095679;28;20024;-70
2022/04/10 09:14:24;;;;;;;13.10;3.78;;;9.10;99.90;;;;;;5095701;28;20145;-70
2022/04/10 09:17:18;;;;;;;8.50;3.80;;;9.00;99.90;;;;;;5095604;28;20095;-70
2022/04/10 09:19:46;;;;;;;11.85;3.70;;;9.70;99.90;;;;;;5095582;28;20024;-71
2022/04/10 09:22:24;;;;;;;10.85;3.72;;;9.50;99.90;;;;;;5095642;28;20035;-71
2022/04/10 09:25:11;;;;;;;13.40;3.53;;;9.10;99.90;;;;;;5095576;28;20493;-69
2022/04/10 09:27:42;;;;;;;9.15;3.50;;;9.00;99.90;;;;;;5078559;28;20093;-69
2022/04/10 09:30:11;;;;;;;9.45;3.47;;;9.10;99.90;;;;;;5095037;28;20055;-70
2022/04/10 09:32:40;;;;;;;7.85;3.40;;;9.10;99.90;;;;;;5096604;28;20016;-70
2022/04/10 09:35:06;;;;;;;11.65;3.28;;;9.30;99.90;;;;;;5095240;28;20474;-70
2022/04/10 09:37:42;;;;;;;7.85;3.30;;;9.10;99.90;;;;;;5095301;28;20016;-70
2022/04/10 09:40:29;;;;;;;9.05;3.72;;;8.80;99.90;;;;;;5095254;28;20077;-70
2022/04/10 09:43:12;;;;;;;11.88;3.50;;;8.70;99.90;;;;;;5095102;28;20024;-71
2022/04/10 09:45:40;;;;;;;11.85;3.67;;;8.70;99.90;;;;;;5096394;28;20020;-70
2022/04/10 09:48:28;;;;;;;8.43;3.33;;;8.80;99.90;;;;;;5096373;28;20024;-71
2022/04/10 09:50:57;;;;;;;7.35;3.28;;;8.70;99.90;;;;;;5096094;28;20032;-70
2022/04/10 09:53:23;;;;;;;10.02;3.47;;;8.80;99.90;;;;;;5094925;28;20120;-71
2022/04/10 09:55:54;;;;;;;10.07;3.38;;;9.20;99.90;;;;;;5096102;28;20104;-70
2022/04/10 09:58:20;;;;;;;8.90;3.78;;;9.50;99.90;;;;;;5094163;28;20522;-71
2022/04/10 10:00:47;;;;;;;7.25;3.25;;;9.60;99.90;;;;;;5095088;28;20028;-70
2022/04/10 10:03:14;;;;;;;14.13;3.65;;;10.00;99.90;;;;;;5094681;28;20495;-71
2022/04/10 10:05:40;;;;;;;6.80;2.83;;;10.30;99.90;;;;;;5095361;28;20020;-70
2022/04/10 10:08:07;;;;;;;8.25;3.10;;;10.50;99.90;;;;;;5095987;28;20024;-70
2022/04/10 10:10:35;;;;;;;11.02;3.78;;;11.20;99.90;;;;;;5077616;28;20038;-69
2022/04/10 10:13:03;;;;;;;7.03;3.38;;;10.70;99.90;;;;;;5077623;28;20024;-70
2022/04/10 10:15:29;;;;;;;10.75;3.08;;;10.90;99.90;;;;;;5095750;28;20022;-70
2022/04/10 10:17:55;;;;;;;8.57;3.28;;;10.80;99.90;;;;;;5095715;28;20032;-69
2022/04/10 10:20:21;;;;;;;10.50;3.72;;;10.40;99.90;;;;;;5094444;28;20103;-70
2022/04/10 10:22:47;;;;;;;13.07;3.67;;;10.00;99.90;;;;;;5094647;28;20486;-70
2022/04/10 10:25:20;;;;;;;11.32;3.30;;;9.80;99.90;;;;;;5094331;28;20045;-71
2022/04/10 10:28:16;;;;;;;8.03;3.30;;;9.70;99.90;;;;;;5077365;28;20077;-70
2022/04/10 10:33:22;;;;;;;8.63;2.90;;;9.50;99.90;;;;;;5096371;27;20136;-70
2022/04/10 10:36:08;;;;;;;10.85;3.25;;;9.30;99.90;;;;;;5090627;28;20032;-71
2022/04/10 10:38:33;;;;;;;6.35;2.95;;;9.60;99.90;;;;;;5090707;28;20439;-71
2022/04/10 10:41:21;;;;;;;6.97;3.15;;;10.30;99.90;;;;;;5072604;28;20107;-71
2022/04/10 10:43:48;;;;;;;9.65;3.10;;;11.40;99.90;;;;;;5090572;28;20382;-70
2022/04/10 10:46:23;;;;;;;7.93;3.13;;;11.50;99.90;;;;;;5072584;28;20074;-71
2022/04/10 10:48:51;;;;;;;7.38;2.72;;;12.30;99.90;;;;;;5089275;28;20086;-69
2022/04/10 10:51:22;;;;;;;5.97;2.67;;;12.80;99.90;;;;;;5072356;28;20075;-70
2022/04/10 10:53:57;;;;;;;7.90;2.65;;;13.00;99.90;;;;;;5090373;28;20433;-69
2022/04/10 10:56:32;;;;;;;6.07;3.20;;;12.90;99.90;;;;;;5089064;28;20063;-69
2022/04/10 10:59:34;;;;;;;5.85;1.90;;;12.70;99.90;;;;;;5089159;28;20074;-69
2022/04/10 11:02:02;;;;;;;8.00;2.28;;;12.50;99.90;;;;;;5090192;28;20107;-69
2022/04/10 11:04:34;;;;;;;6.53;2.15;;;11.70;99.90;;;;;;5088916;28;20024;-70
2022/04/10 11:10:03;;;;;;;4.38;2.13;;;11.70;99.90;;;;;;5090682;28;20432;-70
2022/04/10 11:12:34;;;;;;;6.55;2.00;;;11.30;99.90;;;;;;5089517;28;20060;-69
2022/04/10 11:15:12;;;;;;;7.03;2.67;;;11.20;99.90;;;;;;5089473;28;20036;-71
2022/04/10 11:17:39;;;;;;;7.57;2.10;;;11.20;99.90;;;;;;5090602;28;20042;-70
2022/04/10 11:20:07;;;;;;;5.50;1.85;;;11.50;99.90;;;;;;5089514;28;20039;-70
2022/04/10 11:22:35;;;;;;;4.47;1.70;;;11.30;99.90;;;;;;5090440;28;20031;-69
2022/04/10 11:25:07;;;;;;;7.60;2.05;;;10.80;99.90;;;;;;5072536;28;20056;-69
2022/04/10 11:27:50;;;;;;;7.10;2.35;;;11.20;99.90;;;;;;5090398;28;20451;-71
2022/04/10 11:30:25;;;;;;;2.72;1.75;;;11.30;99.90;;;;;;5089230;28;20095;-69
2022/04/10 11:33:00;;;;;;;6.53;2.08;;;11.60;99.90;;;;;;5090330;28;20032;-70
2022/04/10 11:35:30;;;;;;;3.97;1.73;;;11.80;99.90;;;;;;5090258;28;20035;-69
2022/04/10 11:37:57;;;;;;;6.47;2.17;;;12.20;99.90;;;;;;5090185;28;20024;-70
2022/04/10 11:43:04;;;;;;;4.85;1.70;;;12.20;98.60;;;;;;5111160;27;20428;-70
2022/04/10 11:45:31;;;;;;;6.18;1.70;;;11.50;99.90;;;;;;5076162;28;20506;-69
2022/04/10 11:47:58;;;;;;;4.80;2.10;;;11.20;99.90;;;;;;5111009;28;20367;-70
2022/04/10 11:50:25;;;;;;;2.33;1.38;;;10.90;99.90;;;;;;5110921;28;20035;-71
2022/04/10 11:53:01;;;;;;;4.10;2.15;;;11.40;99.90;;;;;;5110929;28;20474;-70
2022/04/10 11:55:33;;;;;;;5.75;1.90;;;11.80;99.90;;;;;;5076012;28;20051;-70
2022/04/10 11:57:59;;;;;;;5.53;1.70;;;11.70;99.70;;;;;;5092637;28;20024;-71
2022/04/10 12:00:26;;;;;;;4.53;1.70;;;11.80;99.90;;;;;;5110798;28;20413;-70
2022/04/10 12:02:53;;;;;;;11.82;1.92;;;11.40;99.90;;;;;;5092622;28;20055;-70
2022/04/10 12:05:20;;;;;;;6.85;1.65;;;11.10;99.90;;;;;;5092709;28;20389;-70
2022/04/10 12:07:45;;;;;;;4.18;1.58;;;10.80;99.90;;;;;;5092652;28;20475;-70
2022/04/10 12:10:17;;;;;;;5.32;1.55;;;11.10;99.90;;;;;;5092558;28;20102;-70
2022/04/10 12:12:44;;;;;;;7.10;2.30;;;11.50;99.90;;;;;;5110443;28;20427;-70
2022/04/10 12:15:16;;;;;;;4.88;1.75;;;11.40;99.70;;;;;;5075450;28;20122;-70
2022/04/10 12:17:42;;;;;;;5.90;1.67;;;11.70;99.90;;;;;;5110469;28;20028;-70
2022/04/10 12:20:09;;;;;;;4.45;1.48;;;12.20;99.40;;;;;;5110437;28;20032;-70
2022/04/10 12:22:34;;;;;;;4.57;1.70;;;12.10;99.30;;;;;;5092173;28;20020;-70
2022/04/10 12:25:00;;;;;;;6.85;1.58;;;12.20;99.10;;;;;;5075210;28;20034;-69
2022/04/10 12:27:27;;;;;;;5.22;1.73;;;12.40;97.80;;;;;;5091824;28;20032;-69
2022/04/10 12:29:54;;;;;;;5.78;1.80;;;12.70;98.70;;;;;;5075181;28;20468;-69
2022/04/10 12:32:21;;;;;;;3.88;1.60;;;12.40;96.60;;;;;;5092012;28;20032;-70
2022/04/10 12:34:47;;;;;;;3.47;1.45;;;12.70;96.60;;;;;;5092251;28;20038;-70
2022/04/10 12:37:13;;;;;;;5.18;1.83;;;12.30;96.10;;;;;;5091757;28;20020;-74
2022/04/10 12:39:40;;;;;;;3.28;1.23;;;12.30;95.50;;;;;;5074884;28;20027;-74
2022/04/10 12:42:08;;;;;;;6.45;1.73;;;12.20;93.70;;;;;;5109586;28;20083;-74
2022/04/10 12:44:37;;;;;;;7.43;1.80;;;11.60;95.00;;;;;;5091983;28;20414;-74
2022/04/10 12:47:06;;;;;;;6.05;1.73;;;10.80;99.90;;;;;;5092401;28;20031;-74
2022/04/10 12:49:39;;;;;;;3.75;1.50;;;10.50;99.90;;;;;;5109830;28;20024;-74
2022/04/10 12:52:08;;;;;;;4.50;1.70;;;10.40;99.90;;;;;;5074620;28;20016;-75
2022/04/10 12:54:42;;;;;;;5.53;1.83;;;10.20;99.90;;;;;;5078185;28;20545;-74